Time;durP1;ratioP1;P1;durP2;ratioP2;P2;SDS_P1;SDS_P2;PMS_P1;PMS_P2;Temp;Humidity;BMP_temperature;BMP_pressure;BME280_temperature;BME280_humidity;BME280_pressure;Samples;Min_cycle;Max_cycle;Signal;HPM_P1;HPM_P2
2023/02/17 00:00:56;;;;;;;;;;;;;;;7.02;72.13;97339.97;5094698;28;19946;-78
2023/02/17 00:03:22;;;;;;;;;;;;;;;7.01;72.13;97344.34;5093353;28;19953;-78
2023/02/17 00:05:48;;;;;;;;;;;;;;;7.01;72.32;97339.13;5076887;28;20307;-78
2023/02/17 00:08:14;;;;;;;;;;;;;;;7.00;72.47;97336.72;5094689;28;19958;-78
2023/02/17 00:10:40;;;;;;;;;;;;;;;6.98;72.23;97336.88;5094691;28;20417;-78
2023/02/17 00:13:06;;;;;;;;;;;;;;;6.99;73.55;97342.91;5094262;28;19964;-78
2023/02/17 00:15:31;;;;;;;;;;;;;;;6.99;73.27;97342.91;5094298;28;20469;-78
2023/02/17 00:17:57;;;;;;;;;;;;;;;6.97;72.86;97337.88;5094361;28;20001;-78
2023/02/17 00:20:23;;;;;;;;;;;;;;;7.00;73.29;97345.34;5094168;28;19945;-78
2023/02/17 00:22:49;;;;;;;;;;;;;;;7.01;73.30;97338.31;5094374;28;19946;-78
2023/02/17 00:25:15;;;;;;;;;;;;;;;6.99;74.29;97343.75;5094456;28;19952;-78
2023/02/17 00:27:41;;;;;;;;;;;;;;;6.98;73.45;97336.88;5094281;28;20042;-78
2023/02/17 00:30:07;;;;;;;;;;;;;;;7.00;73.47;97339.31;5094042;28;20473;-78
2023/02/17 00:32:33;;;;;;;;;;;;;;;7.01;74.24;97333.91;5094220;28;19955;-78
2023/02/17 00:34:59;;;;;;;;;;;;;;;7.01;73.82;97343.53;5094237;28;20002;-78
2023/02/17 00:37:25;;;;;;;;;;;;;;;7.01;73.63;97335.72;5093942;28;20007;-78
2023/02/17 00:39:51;;;;;;;;;;;;;;;7.00;73.55;97328.91;5093866;28;19958;-78
2023/02/17 00:42:17;;;;;;;;;;;;;;;7.01;73.75;97330.50;5094293;28;19983;-78
2023/02/17 00:44:42;;;;;;;;;;;;;;;6.98;74.33;97321.22;5094009;28;19961;-78
2023/02/17 00:47:08;;;;;;;;;;;;;;;6.97;74.07;97322.22;5075885;28;19955;-78
2023/02/17 00:49:34;;;;;;;;;;;;;;;6.96;74.33;97331.03;5093936;28;19960;-78
2023/02/17 00:52:01;;;;;;;;;;;;;;;6.93;74.68;97325.34;5093650;28;19941;-78
2023/02/17 00:54:27;;;;;;;;;;;;;;;6.90;74.28;97329.09;5094075;28;19951;-78
2023/02/17 00:56:53;;;;;;;;;;;;;;;6.86;74.37;97327.81;5093944;28;19947;-78
2023/02/17 00:59:19;;;;;;;;;;;;;;;6.85;74.37;97332.22;5093809;28;19953;-78
2023/02/17 01:01:45;;;;;;;;;;;;;;;6.81;74.28;97327.53;5093723;28;20402;-78
2023/02/17 01:04:11;;;;;;;;;;;;;;;6.78;74.22;97333.09;5109451;28;19950;-78
2023/02/17 01:06:38;;;;;;;;;;;;;;;6.73;74.73;97333.59;5093808;28;19947;-78
2023/02/17 01:09:05;;;;;;;;;;;;;;;6.67;75.06;97327.28;5093839;28;19958;-78
2023/02/17 01:11:32;;;;;;;;;;;;;;;6.64;75.17;97332.84;5094018;28;19943;-78
2023/02/17 01:13:58;;;;;;;;;;;;;;;6.63;76.02;97340.81;5093549;28;19956;-78
2023/02/17 01:16:32;;;;;;;;;;;;;;;6.59;75.29;97336.94;5097565;28;19958;-78
2023/02/17 01:18:58;;;;;;;;;;;;;;;6.58;75.30;97343.94;5098223;28;19951;-78
2023/02/17 01:21:25;;;;;;;;;;;;;;;6.57;75.30;97341.50;5097927;28;19945;-78
2023/02/17 01:23:52;;;;;;;;;;;;;;;6.54;75.29;97331.44;5097886;28;20310;-78
2023/02/17 01:26:20;;;;;;;;;;;;;;;6.51;75.65;97329.97;5097763;28;19943;-78
2023/02/17 01:28:47;;;;;;;;;;;;;;;6.49;75.59;97330.16;5079459;28;19973;-78
2023/02/17 01:31:13;;;;;;;;;;;;;;;6.47;75.88;97323.50;5098268;28;19944;-78
2023/02/17 01:33:39;;;;;;;;;;;;;;;6.46;76.50;97324.44;5097581;28;19956;-78
2023/02/17 01:36:07;;;;;;;;;;;;;;;6.44;76.29;97319.41;5097757;28;19955;-78
2023/02/17 01:38:33;;;;;;;;;;;;;;;6.45;76.42;97312.41;5097594;28;19949;-78
2023/02/17 01:40:59;;;;;;;;;;;;;;;6.45;76.60;97309.81;5097331;28;20385;-78
2023/02/17 01:43:25;;;;;;;;;;;;;;;6.45;76.79;97308.00;5097565;28;19973;-78
2023/02/17 01:45:55;;;;;;;;;;;;;;;6.46;76.84;97309.63;5097429;28;20431;-78
2023/02/17 01:48:24;;;;;;;;;;;;;;;6.44;76.82;97298.56;5097051;28;19953;-78
2023/02/17 01:50:56;;;;;;;;;;;;;;;6.45;76.77;97286.38;5097502;28;19954;-78
2023/02/17 01:53:24;;;;;;;;;;;;;;;6.42;76.85;97290.09;5097255;28;19956;-78
2023/02/17 01:55:51;;;;;;;;;;;;;;;6.42;77.13;97291.91;5097172;28;19955;-78
2023/02/17 01:58:18;;;;;;;;;;;;;;;6.39;77.29;97293.06;5097131;28;19948;-78
2023/02/17 02:00:44;;;;;;;;;;;;;;;6.38;77.23;97293.22;5096849;28;19942;-78
2023/02/17 02:03:12;;;;;;;;;;;;;;;6.37;77.32;97289.81;5078963;28;19961;-78
2023/02/17 02:05:39;;;;;;;;;;;;;;;6.36;77.10;97285.56;5062668;28;19969;-78
2023/02/17 02:08:06;;;;;;;;;;;;;;;6.36;77.32;97288.19;5097069;28;19952;-78
2023/02/17 02:10:31;;;;;;;;;;;;;;;6.36;77.22;97284.75;5096698;28;19963;-78
2023/02/17 02:12:57;;;;;;;;;;;;;;;6.35;77.36;97285.75;5097066;28;19962;-78
2023/02/17 02:15:26;;;;;;;;;;;;;;;6.29;77.20;97282.84;5078578;28;19961;-78
2023/02/17 02:17:55;;;;;;;;;;;;;;;6.24;76.67;97276.53;5096901;28;19946;-78
2023/02/17 02:20:40;;;;;;;;;;;;;;;6.20;76.88;97270.03;5096573;28;19960;-78
2023/02/17 02:23:26;;;;;;;;;;;;;;;6.14;76.79;97268.91;5096581;28;20310;-78
2023/02/17 02:25:55;;;;;;;;;;;;;;;6.08;77.16;97272.19;5095986;28;19946;-78
2023/02/17 02:28:27;;;;;;;;;;;;;;;6.02;77.03;97273.66;5096075;28;20402;-78
2023/02/17 02:31:07;;;;;;;;;;;;;;;5.99;77.38;97274.00;5096483;28;19947;-78
2023/02/17 02:33:40;;;;;;;;;;;;;;;5.96;77.69;97269.13;5078849;28;20357;-78
2023/02/17 02:36:11;;;;;;;;;;;;;;;5.94;77.86;97268.44;5096211;28;19953;-78
2023/02/17 02:39:03;;;;;;;;;;;;;;;5.91;78.07;97266.19;5096475;28;19951;-78
2023/02/17 02:41:35;;;;;;;;;;;;;;;5.89;78.07;97274.16;5092455;28;20320;-78
2023/02/17 02:44:05;;;;;;;;;;;;;;;5.88;78.39;97276.97;5096207;28;19973;-78
2023/02/17 02:46:31;;;;;;;;;;;;;;;5.86;78.39;97274.53;5096361;28;19952;-78
2023/02/17 02:48:58;;;;;;;;;;;;;;;5.84;78.60;97271.28;5096022;28;19965;-78
2023/02/17 02:51:23;;;;;;;;;;;;;;;5.84;79.08;97273.06;5096415;28;19966;-79
2023/02/17 02:53:58;;;;;;;;;;;;;;;5.82;78.89;97262.81;5096221;28;20396;-78
2023/02/17 02:56:43;;;;;;;;;;;;;;;5.82;79.00;97262.00;5096010;28;19945;-78
2023/02/17 02:59:18;;;;;;;;;;;;;;;5.82;78.80;97267.22;5081925;28;20396;-78
2023/02/17 03:01:49;;;;;;;;;;;;;;;5.77;78.79;97262.50;5077849;28;19953;-78
2023/02/17 03:04:35;;;;;;;;;;;;;;;5.73;79.19;97261.19;5095897;28;19955;-78
2023/02/17 03:07:19;;;;;;;;;;;;;;;5.69;79.24;97258.13;5096004;28;19961;-78
2023/02/17 03:09:53;;;;;;;;;;;;;;;5.65;79.74;97250.84;5084412;28;19960;-78
2023/02/17 03:12:20;;;;;;;;;;;;;;;5.61;79.86;97250.34;5095512;28;19946;-78
2023/02/17 03:14:50;;;;;;;;;;;;;;;5.60;79.88;97253.91;5095835;28;19957;-78
2023/02/17 03:17:16;;;;;;;;;;;;;;;5.61;80.51;97255.56;5095586;28;19959;-78
2023/02/17 03:19:44;;;;;;;;;;;;;;;5.62;80.38;97240.75;5077462;28;20039;-78
2023/02/17 03:22:18;;;;;;;;;;;;;;;5.63;79.67;97239.78;5095596;28;19954;-78
2023/02/17 03:24:44;;;;;;;;;;;;;;;5.64;80.51;97241.38;5095396;28;19949;-78
2023/02/17 03:27:10;;;;;;;;;;;;;;;5.65;80.03;97236.03;5095203;28;19952;-78
2023/02/17 03:29:35;;;;;;;;;;;;;;;5.66;80.20;97242.03;5095068;28;20425;-78
2023/02/17 03:32:01;;;;;;;;;;;;;;;5.68;80.08;97234.88;5095323;28;20362;-78
2023/02/17 03:34:27;;;;;;;;;;;;;;;5.67;80.67;97235.88;5095078;28;19983;-78
2023/02/17 03:36:53;;;;;;;;;;;;;;;5.67;80.50;97244.47;5095317;28;19959;-78
2023/02/17 03:39:19;;;;;;;;;;;;;;;5.68;80.40;97240.06;5095303;28;19981;-78
2023/02/17 03:41:45;;;;;;;;;;;;;;;5.67;79.82;97236.66;5095182;28;19992;-78
2023/02/17 03:44:11;;;;;;;;;;;;;;;5.66;81.38;97247.25;5094790;28;20003;-78
2023/02/17 03:46:39;;;;;;;;;;;;;;;5.64;81.54;97250.00;5094980;28;20054;-78
2023/02/17 03:49:05;;;;;;;;;;;;;;;5.63;81.45;97258.81;5095544;28;20452;-78
2023/02/17 03:51:31;;;;;;;;;;;;;;;5.63;81.41;97260.59;5095029;28;19952;-78
2023/02/17 03:53:57;;;;;;;;;;;;;;;5.66;81.75;97257.66;5095114;28;19948;-78
2023/02/17 03:56:23;;;;;;;;;;;;;;;5.67;80.54;97254.88;5094714;28;19963;-78
2023/02/17 03:58:49;;;;;;;;;;;;;;;5.69;80.55;97255.53;5094643;28;20021;-78
2023/02/17 04:01:15;;;;;;;;;;;;;;;5.70;80.31;97251.13;5094756;28;19954;-78
2023/02/17 04:03:40;;;;;;;;;;;;;;;5.70;80.90;97258.94;5094731;28;19980;-78
2023/02/17 04:06:07;;;;;;;;;;;;;;;5.69;80.38;97254.69;5094477;28;19957;-78
2023/02/17 04:08:33;;;;;;;;;;;;;;;5.67;80.28;97254.88;5094646;28;19957;-78
2023/02/17 04:11:00;;;;;;;;;;;;;;;5.65;80.41;97250.84;5094552;28;20038;-78
2023/02/17 04:13:26;;;;;;;;;;;;;;;5.62;79.93;97257.16;5094229;28;20022;-78
2023/02/17 04:15:52;;;;;;;;;;;;;;;5.58;79.90;97260.28;5094535;28;20052;-78
2023/02/17 04:18:18;;;;;;;;;;;;;;;5.56;80.20;97262.22;5094660;28;19954;-78
2023/02/17 04:20:44;;;;;;;;;;;;;;;5.54;80.24;97249.38;5076482;28;19951;-78
2023/02/17 04:23:10;;;;;;;;;;;;;;;5.52;80.62;97261.72;5094227;28;19972;-78
2023/02/17 04:25:36;;;;;;;;;;;;;;;5.50;81.06;97263.69;5094310;28;19953;-78
2023/02/17 04:28:03;;;;;;;;;;;;;;;5.50;80.87;97258.47;5094174;28;19946;-78
2023/02/17 04:30:30;;;;;;;;;;;;;;;5.51;82.38;97267.13;5094246;28;19960;-78
2023/02/17 04:32:56;;;;;;;;;;;;;;;5.46;83.11;97271.03;5094545;28;20438;-78
2023/02/17 04:35:22;;;;;;;;;;;;;;;5.41;82.22;97262.91;5094182;28;19954;-78
2023/02/17 04:37:47;;;;;;;;;;;;;;;5.42;84.05;97274.13;5094132;28;20071;-78
2023/02/17 04:40:14;;;;;;;;;;;;;;;5.45;83.49;97266.78;5094148;28;19969;-78
2023/02/17 04:42:40;;;;;;;;;;;;;;;5.48;83.35;97260.44;5093526;28;19975;-78
2023/02/17 04:45:06;;;;;;;;;;;;;;;5.47;83.44;97269.22;5094291;28;19966;-78
2023/02/17 04:47:33;;;;;;;;;;;;;;;5.45;83.49;97263.38;5093854;28;19952;-79
2023/02/17 04:49:59;;;;;;;;;;;;;;;5.44;82.96;97254.78;5075106;28;19978;-78
2023/02/17 04:52:24;;;;;;;;;;;;;;;5.45;83.45;97252.97;5093967;28;19952;-78
2023/02/17 04:54:50;;;;;;;;;;;;;;;5.45;83.57;97256.38;5093958;28;19958;-78
2023/02/17 04:57:16;;;;;;;;;;;;;;;5.47;83.35;97257.03;5093789;28;19983;-78
2023/02/17 04:59:42;;;;;;;;;;;;;;;5.46;83.53;97250.22;5093935;28;19957;-78
2023/02/17 05:02:08;;;;;;;;;;;;;;;5.47;83.54;97251.81;5076057;28;19956;-78
2023/02/17 05:04:34;;;;;;;;;;;;;;;5.48;83.67;97244.81;5093634;28;20101;-78
2023/02/17 05:07:00;;;;;;;;;;;;;;;5.50;87.94;97255.88;5093781;28;20310;-78
2023/02/17 05:09:26;;;;;;;;;;;;;;;5.53;85.68;97236.56;5093668;28;19965;-78
2023/02/17 05:11:52;;;;;;;;;;;;;;;5.54;85.15;97236.38;5075648;28;20457;-78
2023/02/17 05:14:18;;;;;;;;;;;;;;;5.53;84.30;97229.53;5093504;28;19954;-78
2023/02/17 05:16:43;;;;;;;;;;;;;;;5.54;84.63;97231.16;5093638;28;19957;-78
2023/02/17 05:19:09;;;;;;;;;;;;;;;5.55;84.75;97224.19;5075770;28;19950;-78
2023/02/17 05:21:36;;;;;;;;;;;;;;;5.54;85.51;97225.97;5094092;28;19955;-78
2023/02/17 05:24:02;;;;;;;;;;;;;;;5.55;85.47;97238.00;5093497;28;19947;-78
2023/02/17 05:26:27;;;;;;;;;;;;;;;5.55;84.94;97230.19;5093678;28;20432;-78
2023/02/17 05:28:53;;;;;;;;;;;;;;;5.54;85.14;97225.16;5075669;28;19991;-78
2023/02/17 05:31:19;;;;;;;;;;;;;;;5.53;85.09;97219.16;5075606;28;19968;-78
2023/02/17 05:33:45;;;;;;;;;;;;;;;5.53;86.24;97226.16;5093517;28;19946;-78
2023/02/17 05:36:12;;;;;;;;;;;;;;;5.54;86.77;97232.94;5093522;28;19953;-78
2023/02/17 05:38:38;;;;;;;;;;;;;;;5.52;86.26;97225.31;5081943;28;19953;-78
2023/02/17 05:41:04;;;;;;;;;;;;;;;5.51;88.77;97234.09;5093302;28;19975;-78
2023/02/17 05:43:31;;;;;;;;;;;;;;;5.52;86.59;97233.13;5092964;28;19974;-78
2023/02/17 05:46:03;;;;;;;;;;;;;;;5.54;87.37;97231.16;5093799;28;19953;-78
2023/02/17 05:48:29;;;;;;;;;;;;;;;5.54;88.23;97230.34;5093275;28;19951;-78
2023/02/17 05:50:55;;;;;;;;;;;;;;;5.55;87.12;97230.19;5093310;28;19965;-78
2023/02/17 05:53:21;;;;;;;;;;;;;;;5.57;86.50;97232.63;5093308;28;20357;-78
2023/02/17 05:55:47;;;;;;;;;;;;;;;5.56;87.01;97233.59;5075030;28;20374;-78
2023/02/17 05:58:12;;;;;;;;;;;;;;;5.56;87.01;97234.41;5093337;28;19986;-78
2023/02/17 06:00:39;;;;;;;;;;;;;;;5.56;90.69;97242.22;5094204;28;19957;-78
2023/02/17 06:03:05;;;;;;;;;;;;;;;5.57;88.34;97237.84;5097468;28;19942;-78
2023/02/17 06:05:30;;;;;;;;;;;;;;;5.60;88.35;97240.09;5096994;28;19956;-78
2023/02/17 06:07:56;;;;;;;;;;;;;;;5.58;88.86;97240.25;5096756;28;19947;-78
2023/02/17 06:10:22;;;;;;;;;;;;;;;5.59;89.40;97246.28;5096922;28;19962;-78
2023/02/17 06:12:48;;;;;;;;;;;;;;;5.57;88.97;97249.06;5079056;28;19994;-78
2023/02/17 06:15:14;;;;;;;;;;;;;;;5.57;89.00;97248.25;5096734;28;20048;-78
2023/02/17 06:17:40;;;;;;;;;;;;;;;5.57;90.28;97258.66;5096840;28;20358;-78
2023/02/17 06:20:06;;;;;;;;;;;;;;;5.56;89.51;97255.22;5096837;28;20335;-78
2023/02/17 06:22:32;;;;;;;;;;;;;;;5.58;89.37;97262.88;5096635;28;19948;-78
2023/02/17 06:24:58;;;;;;;;;;;;;;;5.59;88.71;97265.31;5096730;28;20445;-78
2023/02/17 06:27:24;;;;;;;;;;;;;;;5.61;89.23;97260.75;5096671;28;19955;-77
2023/02/17 06:29:50;;;;;;;;;;;;;;;5.62;90.69;97264.97;5096555;28;19960;-78
2023/02/17 06:32:16;;;;;;;;;;;;;;;5.62;90.01;97267.56;5096561;28;20011;-78
2023/02/17 06:34:42;;;;;;;;;;;;;;;5.64;92.11;97278.63;5096390;28;19950;-78
2023/02/17 06:37:07;;;;;;;;;;;;;;;5.65;93.03;97272.47;5096565;28;19948;-78
2023/02/17 06:39:33;;;;;;;;;;;;;;;5.68;92.39;97289.53;5096733;28;19955;-78
2023/02/17 06:41:59;;;;;;;;;;;;;;;5.68;91.35;97269.50;5095908;28;20391;-78
2023/02/17 06:44:25;;;;;;;;;;;;;;;5.73;91.38;97283.81;5096448;28;20040;-78
2023/02/17 06:46:51;;;;;;;;;;;;;;;5.72;92.02;97277.81;5096530;28;20411;-78
2023/02/17 06:49:17;;;;;;;;;;;;;;;5.83;92.34;97272.22;5095996;28;19952;-78
2023/02/17 06:51:43;;;;;;;;;;;;;;;5.92;91.58;97278.22;5096084;28;20478;-78
2023/02/17 06:54:09;;;;;;;;;;;;;;;5.99;92.25;97273.22;5096199;28;19949;-78
2023/02/17 06:56:35;;;;;;;;;;;;;;;6.09;92.13;97272.03;5096106;28;20028;-78
2023/02/17 06:59:01;;;;;;;;;;;;;;;6.17;92.40;97275.56;5095884;28;20036;-78
2023/02/17 07:01:27;;;;;;;;;;;;;;;6.30;95.40;97287.09;5095937;28;19948;-78
2023/02/17 07:03:53;;;;;;;;;;;;;;;6.46;95.48;97280.16;5096028;28;20015;-78
2023/02/17 07:06:20;;;;;;;;;;;;;;;6.60;92.41;97278.63;5077863;28;19956;-78
2023/02/17 07:08:45;;;;;;;;;;;;;;;6.68;91.28;97284.59;5077619;28;19955;-78
2023/02/17 07:11:12;;;;;;;;;;;;;;;6.75;92.50;97286.53;5096395;28;19969;-78
2023/02/17 07:13:39;;;;;;;;;;;;;;;6.83;93.87;97302.13;5095273;28;19945;-78
2023/02/17 07:16:06;;;;;;;;;;;;;;;6.89;92.14;97293.59;5095963;28;19968;-78
2023/02/17 07:18:32;;;;;;;;;;;;;;;6.93;91.78;97294.88;5095442;28;19943;-78
2023/02/17 07:20:58;;;;;;;;;;;;;;;6.99;91.91;97295.97;5095421;28;19956;-78
2023/02/17 07:23:24;;;;;;;;;;;;;;;7.04;92.60;97302.28;5095794;28;20042;-78
2023/02/17 07:25:50;;;;;;;;;;;;;;;7.14;93.67;97301.22;5095582;28;19979;-78
2023/02/17 07:28:15;;;;;;;;;;;;;;;7.18;92.06;97300.72;5095448;28;19992;-78
2023/02/17 07:30:42;;;;;;;;;;;;;;;7.23;91.86;97303.63;5095374;28;19976;-78
2023/02/17 07:33:09;;;;;;;;;;;;;;;7.28;93.21;97311.72;5095433;28;19960;-78
2023/02/17 07:35:39;;;;;;;;;;;;;;;7.32;92.55;97323.41;5095175;28;19950;-78
2023/02/17 07:38:04;;;;;;;;;;;;;;;7.38;94.54;97324.53;5095464;28;19959;-78
2023/02/17 07:40:30;;;;;;;;;;;;;;;7.42;95.07;97327.59;5060323;28;19942;-78
2023/02/17 07:42:57;;;;;;;;;;;;;;;7.44;92.70;97318.59;5095514;28;20033;-78
2023/02/17 07:45:23;;;;;;;;;;;;;;;7.47;92.74;97318.25;5094886;28;20443;-78
2023/02/17 07:47:49;;;;;;;;;;;;;;;7.48;91.54;97314.66;5076488;28;19987;-78
2023/02/17 07:50:14;;;;;;;;;;;;;;;7.51;92.75;97309.06;5094796;28;19968;-78
2023/02/17 07:52:40;;;;;;;;;;;;;;;7.56;93.88;97323.38;5094873;28;19949;-78
2023/02/17 07:55:06;;;;;;;;;;;;;;;7.58;96.20;97327.47;5095381;28;19955;-78
2023/02/17 07:57:32;;;;;;;;;;;;;;;7.63;95.77;97326.94;5094866;28;20003;-79
2023/02/17 07:59:58;;;;;;;;;;;;;;;7.69;95.61;97328.84;5095097;28;19999;-78
2023/02/17 08:02:24;;;;;;;;;;;;;;;7.75;95.30;97337.75;5094747;28;19997;-78
2023/02/17 08:04:50;;;;;;;;;;;;;;;7.80;94.54;97333.63;5094775;28;19956;-78
2023/02/17 08:07:16;;;;;;;;;;;;;;;7.85;93.03;97336.53;5094730;28;19949;-78
2023/02/17 08:15:11;;;;;;;;;;;;;;;7.95;95.45;97358.94;5094398;28;20346;-78
2023/02/17 08:17:37;;;;;;;;;;;;;;;7.99;94.95;97355.78;5076882;28;19962;-78
2023/02/17 08:20:03;;;;;;;;;;;;;;;8.03;94.96;97351.84;5076369;28;19954;-78
2023/02/17 08:22:29;;;;;;;;;;;;;;;8.05;95.04;97356.88;5094390;28;19945;-78
2023/02/17 08:24:55;;;;;;;;;;;;;;;8.07;96.10;97358.31;5093472;28;19949;-78
2023/02/17 08:27:21;;;;;;;;;;;;;;;8.11;95.45;97356.97;5094377;28;19954;-78
2023/02/17 08:29:47;;;;;;;;;;;;;;;8.14;94.35;97345.34;5094309;28;20027;-78
2023/02/17 08:32:14;;;;;;;;;;;;;;;8.19;96.70;97361.31;5094314;28;20013;-78
2023/02/17 08:34:39;;;;;;;;;;;;;;;8.24;94.54;97355.53;5094440;28;19953;-78
2023/02/17 08:37:06;;;;;;;;;;;;;;;8.29;95.04;97351.41;5076073;28;19954;-78
2023/02/17 08:39:33;;;;;;;;;;;;;;;8.33;95.76;97344.00;5094460;28;19952;-78
2023/02/17 08:41:59;;;;;;;;;;;;;;;8.39;95.31;97348.50;5094090;28;19955;-78
2023/02/17 08:44:25;;;;;;;;;;;;;;;8.44;95.46;97354.03;5094107;28;19959;-78
2023/02/17 08:46:51;;;;;;;;;;;;;;;8.46;94.07;97353.84;5093880;28;19993;-78
2023/02/17 08:49:19;;;;;;;;;;;;;;;8.48;95.15;97359.69;5093920;28;20004;-78
2023/02/17 08:51:45;;;;;;;;;;;;;;;8.49;94.95;97351.69;5093844;28;19971;-78
2023/02/17 08:54:11;;;;;;;;;;;;;;;8.49;94.03;97350.88;5094022;28;20423;-78
2023/02/17 08:56:38;;;;;;;;;;;;;;;8.50;95.16;97361.16;5093745;28;19958;-78
2023/02/17 08:59:05;;;;;;;;;;;;;;;8.49;95.51;97351.69;5094269;28;20396;-78
2023/02/17 09:01:31;;;;;;;;;;;;;;;8.49;95.18;97356.09;5094339;28;19949;-78
2023/02/17 09:03:58;;;;;;;;;;;;;;;8.49;96.47;97356.09;5093664;28;19975;-78
2023/02/17 09:06:30;;;;;;;;;;;;;;;8.50;95.08;97352.47;5093895;28;19963;-78
2023/02/17 09:08:56;;;;;;;;;;;;;;;8.51;95.19;97344.47;5083547;28;19953;-78
2023/02/17 09:11:22;;;;;;;;;;;;;;;8.54;96.91;97361.59;5093672;28;19961;-78
2023/02/17 09:13:48;;;;;;;;;;;;;;;8.56;97.08;97358.78;5109390;28;20422;-78
2023/02/17 09:16:14;;;;;;;;;;;;;;;8.58;96.23;97360.22;5094037;28;19990;-78
2023/02/17 09:18:40;;;;;;;;;;;;;;;8.61;96.13;97354.66;5093352;28;19951;-78
2023/02/17 09:21:07;;;;;;;;;;;;;;;8.63;97.08;97355.28;5093309;28;19956;-78
2023/02/17 09:23:33;;;;;;;;;;;;;;;8.65;96.48;97349.84;5093779;28;19948;-78
2023/02/17 09:26:01;;;;;;;;;;;;;;;8.68;97.86;97358.16;5093403;28;20319;-78
2023/02/17 09:28:27;;;;;;;;;;;;;;;8.71;97.43;97352.56;5075631;28;19942;-78
2023/02/17 09:30:53;;;;;;;;;;;;;;;8.74;97.97;97351.38;5093323;28;20003;-78
2023/02/17 09:33:18;;;;;;;;;;;;;;;8.80;97.84;97347.19;5093882;28;19954;-78
2023/02/17 09:35:44;;;;;;;;;;;;;;;8.86;97.33;97339.44;5094430;28;20000;-78
2023/02/17 09:38:10;;;;;;;;;;;;;;;8.93;96.32;97339.50;5097483;28;19953;-78
2023/02/17 09:40:47;;;;;;;;;;;;;;;9.01;97.16;97360.34;5097572;28;19998;-78
2023/02/17 09:43:14;;;;;;;;;;;;;;;9.06;96.82;97338.84;5097541;28;19967;-78
2023/02/17 09:45:41;;;;;;;;;;;;;;;9.08;97.08;97335.03;5097436;28;20317;-78
2023/02/17 09:48:13;;;;;;;;;;;;;;;9.09;96.01;97326.19;5079161;28;19951;-78
2023/02/17 09:51:08;;;;;;;;;;;;;;;9.13;97.08;97342.31;5084035;28;20331;-78
2023/02/17 09:53:44;;;;;;;;;;;;;;;9.21;97.38;97350.06;5074138;28;19951;-78
2023/02/17 09:56:13;;;;;;;;;;;;;;;9.28;97.11;97345.72;5097304;28;19955;-78
2023/02/17 09:58:41;;;;;;;;;;;;;;;9.37;96.44;97341.16;5097174;28;19946;-78
2023/02/17 10:01:14;;;;;;;;;;;;;;;9.47;96.30;97332.97;5097105;28;19953;-78
2023/02/17 10:03:43;;;;;;;;;;;;;;;9.55;95.94;97331.03;5097130;28;20310;-78
2023/02/17 10:06:27;;;;;;;;;;;;;;;9.64;95.23;97328.25;5078765;28;19946;-78
2023/02/17 10:09:17;;;;;;;;;;;;;;;9.73;94.79;97335.00;5085017;28;19999;-78
2023/02/17 10:11:46;;;;;;;;;;;;;;;9.77;94.17;97331.00;5083337;28;19964;-78
2023/02/17 10:14:42;;;;;;;;;;;;;;;9.84;93.71;97334.47;5096708;28;19957;-78
2023/02/17 10:17:23;;;;;;;;;;;;;;;9.92;92.57;97331.69;5079224;28;19949;-78
2023/02/17 10:19:59;;;;;;;;;;;;;;;10.00;93.17;97327.31;5096813;28;19953;-78
2023/02/17 10:22:26;;;;;;;;;;;;;;;10.03;93.41;97319.88;5096694;28;20394;-78
2023/02/17 10:24:52;;;;;;;;;;;;;;;10.07;93.32;97321.09;5096705;28;19950;-78
2023/02/17 10:27:27;;;;;;;;;;;;;;;10.12;92.44;97310.88;5096474;28;19950;-78
2023/02/17 10:30:11;;;;;;;;;;;;;;;10.17;92.26;97318.13;5078441;28;19950;-78
2023/02/17 10:32:57;;;;;;;;;;;;;;;10.18;92.47;97319.75;5085783;28;19948;-78
2023/02/17 10:35:32;;;;;;;;;;;;;;;10.16;92.92;97332.22;5095717;28;19956;-78
2023/02/17 10:37:58;;;;;;;;;;;;;;;10.14;92.52;97347.34;5096517;28;20305;-78
2023/02/17 10:40:25;;;;;;;;;;;;;;;10.13;92.20;97345.75;5096383;28;19941;-78
2023/02/17 10:42:54;;;;;;;;;;;;;;;10.12;92.41;97349.34;5077861;28;19975;-78
2023/02/17 10:45:23;;;;;;;;;;;;;;;10.12;93.20;97350.19;5096824;28;19953;-78
2023/02/17 10:47:56;;;;;;;;;;;;;;;10.14;93.54;97360.44;5094351;28;21579;-79
2023/02/17 10:50:23;;;;;;;;;;;;;;;10.14;93.54;97357.84;5096405;28;19961;-78
2023/02/17 10:52:49;;;;;;;;;;;;;;;10.15;93.66;97362.88;5096153;28;20429;-78
2023/02/17 10:55:21;;;;;;;;;;;;;;;10.18;93.43;97359.06;5096046;28;19953;-78
2023/02/17 10:57:52;;;;;;;;;;;;;;;10.23;93.78;97348.03;5095643;28;19946;-78
2023/02/17 11:00:18;;;;;;;;;;;;;;;10.24;93.47;97347.81;5096220;28;20408;-78
2023/02/17 11:02:45;;;;;;;;;;;;;;;10.26;93.56;97355.50;5096320;28;20058;-78
2023/02/17 11:05:22;;;;;;;;;;;;;;;10.29;93.27;97349.84;5095721;28;19959;-78
2023/02/17 11:07:53;;;;;;;;;;;;;;;10.30;93.39;97349.69;5095901;28;19945;-78
2023/02/17 11:10:19;;;;;;;;;;;;;;;10.32;94.14;97350.31;5095571;28;19946;-78
2023/02/17 11:12:45;;;;;;;;;;;;;;;10.35;93.38;97347.31;5096103;28;19952;-78
2023/02/17 11:15:16;;;;;;;;;;;;;;;10.38;93.59;97343.50;5095788;28;19962;-78
2023/02/17 11:17:43;;;;;;;;;;;;;;;10.40;93.65;97344.09;5095609;28;19955;-78
2023/02/17 11:20:11;;;;;;;;;;;;;;;10.40;93.52;97349.34;5095538;28;19961;-78
2023/02/17 11:22:44;;;;;;;;;;;;;;;10.42;93.77;97342.09;5095501;28;19947;-78
2023/02/17 11:25:20;;;;;;;;;;;;;;;10.46;94.53;97358.25;5095257;28;19948;-78
2023/02/17 11:27:53;;;;;;;;;;;;;;;10.50;94.44;97341.13;5095763;28;19950;-78
2023/02/17 11:30:20;;;;;;;;;;;;;;;10.56;93.89;97338.53;5094994;28;19961;-79
2023/02/17 11:32:46;;;;;;;;;;;;;;;10.64;93.09;97326.25;5095263;28;19943;-78
2023/02/17 11:35:25;;;;;;;;;;;;;;;10.70;93.86;97339.38;5095794;28;19946;-79
2023/02/17 11:37:59;;;;;;;;;;;;;;;10.75;92.82;97334.38;5077398;28;20397;-78
2023/02/17 11:40:26;;;;;;;;;;;;;;;10.76;93.17;97330.72;5087444;28;19959;-78
2023/02/17 11:42:58;;;;;;;;;;;;;;;10.75;92.83;97325.66;5083858;28;19977;-78
2023/02/17 11:45:26;;;;;;;;;;;;;;;10.76;92.87;97319.44;5095024;28;19958;-78
2023/02/17 11:48:11;;;;;;;;;;;;;;;10.77;93.15;97321.88;5095397;28;19953;-78
2023/02/17 11:50:39;;;;;;;;;;;;;;;10.81;93.37;97314.38;5095133;28;19950;-78
2023/02/17 11:53:44;;;;;;;;;;;;;;;10.83;93.30;97322.06;5094944;28;20412;-78
2023/02/17 11:56:10;;;;;;;;;;;;;;;10.84;92.63;97311.38;5032265;28;19954;-78
2023/02/17 11:58:42;;;;;;;;;;;;;;;10.87;92.40;97307.53;5034592;28;19950;-76
2023/02/17 12:01:17;;;;;;;;;;;;;;;10.85;92.25;97310.34;5063868;28;19960;-78
2023/02/17 12:03:52;;;;;;;;;;;;;;;10.84;91.79;97302.72;5094659;28;19949;-78
2023/02/17 12:06:26;;;;;;;;;;;;;;;10.81;92.37;97306.50;5094202;28;19950;-78
2023/02/17 12:08:59;;;;;;;;;;;;;;;10.79;92.38;97300.66;5095038;28;19950;-78
2023/02/17 12:11:24;;;;;;;;;;;;;;;10.79;92.92;97313.78;5094405;28;19961;-78
2023/02/17 12:13:57;;;;;;;;;;;;;;;10.81;92.38;97313.59;5076542;28;19953;-78
2023/02/17 12:16:37;;;;;;;;;;;;;;;10.85;93.20;97310.34;5086392;28;20408;-78
2023/02/17 12:19:16;;;;;;;;;;;;;;;10.89;92.44;97303.72;5076693;28;19950;-78
2023/02/17 12:22:00;;;;;;;;;;;;;;;10.95;92.80;97300.28;5094449;28;19947;-78
2023/02/17 12:24:32;;;;;;;;;;;;;;;11.02;92.65;97297.69;5094436;28;19948;-78
2023/02/17 12:27:10;;;;;;;;;;;;;;;11.04;92.39;97302.75;5094295;28;19937;-78
2023/02/17 12:29:44;;;;;;;;;;;;;;;11.04;91.77;97295.66;5094351;28;19954;-78
2023/02/17 12:32:29;;;;;;;;;;;;;;;11.10;92.22;97297.50;5093978;28;19962;-78
2023/02/17 12:34:58;;;;;;;;;;;;;;;11.16;91.61;97291.44;5080339;28;19954;-78
2023/02/17 12:37:31;;;;;;;;;;;;;;;11.23;91.84;97288.03;5094024;28;19945;-78
2023/02/17 12:40:14;;;;;;;;;;;;;;;11.27;91.30;97271.66;5094585;28;19946;-78
2023/02/17 12:42:44;;;;;;;;;;;;;;;11.32;90.84;97277.13;5084647;28;19978;-79
2023/02/17 12:45:12;;;;;;;;;;;;;;;11.34;91.00;97280.34;5094195;28;19955;-78
2023/02/17 12:47:54;;;;;;;;;;;;;;;11.36;90.63;97270.47;5093798;28;20410;-78
2023/02/17 12:50:24;;;;;;;;;;;;;;;11.43;90.61;97274.91;5093854;28;20413;-78
2023/02/17 12:52:53;;;;;;;;;;;;;;;11.50;90.25;97266.00;5075639;28;19958;-78
2023/02/17 12:55:18;;;;;;;;;;;;;;;11.59;90.20;97266.63;5094245;28;20423;-78
2023/02/17 12:57:52;;;;;;;;;;;;;;;11.67;89.66;97268.22;5093874;28;19957;-78
2023/02/17 13:00:23;;;;;;;;;;;;;;;11.72;89.88;97265.78;5093808;28;20397;-77
2023/02/17 13:02:49;;;;;;;;;;;;;;;11.74;88.85;97258.50;5075672;28;19960;-76
2023/02/17 13:05:35;;;;;;;;;;;;;;;11.75;88.89;97276.69;5093640;28;19985;-76
2023/02/17 13:08:05;;;;;;;;;;;;;;;11.75;88.55;97260.91;5092896;28;19952;-77